Time;durP1;ratioP1;P1;durP2;ratioP2;P2;SDS_P1;SDS_P2;PMS_P1;PMS_P2;Temp;Humidity;BMP_temperature;BMP_pressure;BME280_temperature;BME280_humidity;BME280_pressure;Samples;Min_cycle;Max_cycle;Signal;HPM_P1;HPM_P2
2023/07/19 00:02:06;;;;;;;4.55;4.13;;;;;;;23.68;100.00;151994.22;5073865;28;20222;-63
2023/07/19 00:04:33;;;;;;;6.18;4.50;;;;;;;23.49;100.00;151944.47;5074115;28;20185;-62
2023/07/19 00:06:59;;;;;;;4.53;4.13;;;;;;;23.53;100.00;151955.97;5073998;28;20208;-63
2023/07/19 00:09:26;;;;;;;4.15;3.95;;;;;;;23.58;100.00;151967.47;5074354;28;20619;-63
2023/07/19 00:11:53;;;;;;;5.20;4.80;;;;;;;23.62;100.00;151977.66;5073799;28;20367;-63
2023/07/19 00:14:21;;;;;;;8.02;4.30;;;;;;;23.51;100.00;151949.56;5073411;28;20185;-62
2023/07/19 00:16:48;;;;;;;9.40;4.57;;;;;;;23.64;100.00;151982.75;5055742;28;20209;-63
2023/07/19 00:19:15;;;;;;;4.50;4.10;;;;;;;23.65;100.00;151986.59;5073355;28;20184;-63
2023/07/19 00:21:42;;;;;;;4.55;4.25;;;;;;;23.57;100.00;151966.19;5073888;28;20180;-63
2023/07/19 00:24:09;;;;;;;4.80;4.40;;;;;;;23.43;100.00;151929.09;5073374;28;20181;-63
2023/07/19 00:26:36;;;;;;;4.32;4.03;;;;;;;23.61;100.00;151975.09;5073293;28;20188;-62
2023/07/19 00:29:03;;;;;;;4.55;4.25;;;;;;;23.49;100.00;151944.47;5055464;28;20189;-64
2023/07/19 00:31:31;;;;;;;3.95;3.75;;;;;;;23.56;100.00;151962.31;5073542;28;20184;-63
2023/07/19 00:33:58;;;;;;;3.80;3.50;;;;;;;23.55;100.00;151961.03;5073623;28;20551;-63
2023/07/19 00:36:25;;;;;;;4.53;3.65;;;;;;;23.54;100.00;151957.25;5073060;28;20209;-63
2023/07/19 00:38:52;;;;;;;4.38;4.07;;;;;;;23.55;100.00;151959.81;5073355;28;20650;-63
2023/07/19 00:41:18;;;;;;;7.07;3.63;;;;;;;23.43;100.00;151929.09;5073160;28;20211;-64
2023/07/19 00:43:48;;;;;;;4.20;4.00;;;;;;;23.36;100.00;151912.53;5072916;28;20239;-63
2023/07/19 00:46:15;;;;;;;4.22;3.90;;;;;;;23.26;100.00;151885.72;5072936;28;20184;-63
2023/07/19 00:48:43;;;;;;;4.40;4.07;;;;;;;23.16;100.00;151862.78;5073389;28;20552;-63
2023/07/19 00:51:11;;;;;;;4.47;4.00;;;;;;;23.10;100.00;151846.16;5072727;28;20233;-63
2023/07/19 00:53:39;;;;;;;5.88;4.20;;;;;;;22.74;100.00;151755.63;5072621;28;20199;-63
2023/07/19 00:56:08;;;;;;;6.32;4.68;;;;;;;22.64;100.00;151731.34;5073558;28;20591;-62
2023/07/19 00:58:37;;;;;;;5.03;4.63;;;;;;;22.58;100.00;151714.72;5072919;28;20278;-63
2023/07/19 01:01:06;;;;;;;5.22;4.28;;;;;;;22.59;100.00;151717.28;5072761;28;20211;-64
2023/07/19 01:03:33;;;;;;;4.28;3.97;;;;;;;22.56;100.00;151709.66;5072963;28;20559;-63
2023/07/19 01:06:03;;;;;;;4.20;4.00;;;;;;;22.46;100.00;151684.13;5072431;28;20196;-62
2023/07/19 01:08:29;;;;;;;4.57;4.25;;;;;;;22.48;100.00;151690.53;5072663;28;20195;-63
2023/07/19 01:10:56;;;;;;;4.85;4.55;;;;;;;22.48;100.00;151689.25;5071900;28;20188;-64
2023/07/19 01:13:23;;;;;;;4.60;4.40;;;;;;;22.57;100.00;151712.22;5072655;28;20554;-63
2023/07/19 01:15:51;;;;;;;4.93;4.40;;;;;;;22.48;100.00;151689.25;5072483;28;20654;-63
2023/07/19 01:18:19;;;;;;;5.60;4.30;;;;;;;22.57;100.00;151713.50;5072154;28;20192;-64
2023/07/19 01:20:46;;;;;;;4.15;3.95;;;;;;;22.27;100.00;151636.97;5072241;28;20200;-64
2023/07/19 01:23:14;;;;;;;4.53;4.15;;;;;;;22.64;100.00;151730.06;5072474;28;20181;-62
2023/07/19 01:25:42;;;;;;;4.07;3.78;;;;;;;22.37;100.00;151661.16;5072918;28;20570;-63
2023/07/19 01:28:10;;;;;;;5.88;5.05;;;;;;;22.47;100.00;151686.69;5072372;28;20600;-63
2023/07/19 01:30:37;;;;;;;5.40;5.07;;;;;;;22.40;100.00;151670.13;5072242;28;20185;-62
2023/07/19 01:33:04;;;;;;;4.82;4.63;;;;;;;22.53;100.00;151703.25;5071875;28;20200;-62
2023/07/19 01:35:31;;;;;;;6.28;5.75;;;;;;;22.58;100.00;151714.72;5071816;28;20213;-63
2023/07/19 01:37:57;;;;;;;5.43;5.13;;;;;;;22.64;100.00;151730.06;5071948;28;20242;-63
2023/07/19 01:40:26;;;;;;;6.15;5.70;;;;;;;22.63;100.00;151728.78;5071916;28;20195;-63
2023/07/19 01:42:52;;;;;;;6.80;6.40;;;;;;;22.65;100.00;151732.59;5072188;28;20654;-63
2023/07/19 01:45:19;;;;;;;6.22;5.80;;;;;;;22.70;100.00;151746.66;5071642;28;20185;-62
2023/07/19 01:47:46;;;;;;;5.90;5.45;;;;;;;22.64;100.00;151730.06;5072054;28;20570;-62
2023/07/19 01:50:13;;;;;;;6.35;5.82;;;;;;;22.69;100.00;151744.13;5071764;28;20193;-64
2023/07/19 01:52:41;;;;;;;8.18;6.32;;;;;;;22.70;100.00;151746.66;5071650;28;20225;-63
2023/07/19 01:55:08;;;;;;;7.47;6.35;;;;;;;22.54;100.00;151705.81;5071990;28;20568;-63
2023/07/19 01:57:36;;;;;;;7.45;6.75;;;;;;;22.53;100.00;151703.25;5071878;28;20279;-63
2023/07/19 02:00:04;;;;;;;9.35;7.00;;;;;;;22.55;100.00;151708.38;5071953;28;20181;-63
2023/07/19 02:02:30;;;;;;;7.70;7.07;;;;;;;22.62;100.00;151724.94;5071865;28;20259;-63
2023/07/19 02:04:57;;;;;;;13.00;6.95;;;;;;;22.63;100.00;151727.50;5053782;28;20200;-64
2023/07/19 02:07:24;;;;;;;7.53;6.82;;;;;;;22.59;100.00;151717.28;5071895;28;20200;-64
2023/07/19 02:09:51;;;;;;;7.20;6.75;;;;;;;22.67;100.00;151737.69;5071758;28;20242;-63
2023/07/19 02:12:18;;;;;;;10.50;7.15;;;;;;;22.65;100.00;151732.59;5071803;28;20585;-63
2023/07/19 02:14:46;;;;;;;7.28;6.57;;;;;;;22.55;100.00;151707.09;5071457;28;20196;-63
2023/07/19 02:17:13;;;;;;;7.38;6.50;;;;;;;22.59;100.00;151717.28;5071717;28;20571;-63
2023/07/19 02:19:40;;;;;;;7.10;6.43;;;;;;;22.62;100.00;151726.22;5071556;28;20193;-64
2023/07/19 02:22:07;;;;;;;7.47;6.80;;;;;;;22.65;100.00;151733.88;5071612;28;20636;-63
2023/07/19 02:24:33;;;;;;;8.10;7.35;;;;;;;22.65;100.00;151732.59;5071466;28;20184;-63
2023/07/19 02:27:00;;;;;;;12.23;7.97;;;;;;;22.47;100.00;151687.97;5071914;28;20184;-62
2023/07/19 02:29:27;;;;;;;10.57;7.72;;;;;;;22.11;100.00;151597.41;5071592;28;20532;-63
2023/07/19 02:31:56;;;;;;;9.25;7.82;;;;;;;22.12;100.00;151598.69;5071224;28;20195;-64
2023/07/19 02:34:22;;;;;;;8.98;8.10;;;;;;;22.04;100.00;151578.28;5071445;28;20199;-63
2023/07/19 02:36:50;;;;;;;8.20;7.70;;;;;;;21.80;100.00;151518.34;5071131;28;20251;-63
2023/07/19 02:39:17;;;;;;;9.68;7.80;;;;;;;21.94;100.00;151554.06;5071340;28;20188;-62
2023/07/19 02:41:44;;;;;;;15.00;9.05;;;;;;;21.99;100.00;151565.53;5071493;28;20243;-63
2023/07/19 02:44:11;;;;;;;20.45;8.82;;;;;;;21.87;100.00;151536.19;5072221;28;20181;-63
2023/07/19 02:46:38;;;;;;;18.02;8.48;;;;;;;22.03;100.00;151577.00;5071381;28;20252;-64
2023/07/19 02:49:06;;;;;;;14.52;9.32;;;;;;;22.12;100.00;151598.69;5071113;28;20184;-63
2023/07/19 02:51:33;;;;;;;11.48;8.48;;;;;;;22.04;100.00;151579.56;5074238;28;20232;-63
2023/07/19 02:54:00;;;;;;;14.02;9.13;;;;;;;22.25;100.00;151633.13;5075559;28;20650;-63
2023/07/19 02:56:26;;;;;;;13.90;8.38;;;;;;;22.36;100.00;151658.66;5075987;28;20215;-63
2023/07/19 02:58:53;;;;;;;14.57;9.25;;;;;;;22.39;100.00;151666.28;5040867;28;20199;-66
2023/07/19 03:01:20;;;;;;;20.77;8.75;;;;;;;22.42;100.00;151673.91;5074781;28;20204;-63
2023/07/19 03:03:47;;;;;;;15.15;8.38;;;;;;;22.38;100.00;151665.00;5075070;28;20196;-62
2023/07/19 03:06:16;;;;;;;9.25;8.40;;;;;;;22.50;100.00;151695.59;5074842;28;20670;-62
2023/07/19 03:08:43;;;;;;;17.25;8.73;;;;;;;22.48;100.00;151690.53;5075068;28;20644;-63
2023/07/19 03:11:10;;;;;;;11.40;8.48;;;;;;;22.56;100.00;151709.66;5074977;28;20204;-63
2023/07/19 03:13:37;;;;;;;16.95;9.07;;;;;;;22.64;100.00;151730.06;5074577;28;20193;-63
2023/07/19 03:16:04;;;;;;;10.85;8.50;;;;;;;22.71;100.00;151747.94;5074861;28;20215;-63
2023/07/19 03:18:30;;;;;;;15.82;8.95;;;;;;;22.77;100.00;151764.53;5074268;28;20192;-63
2023/07/19 03:20:58;;;;;;;17.88;9.27;;;;;;;22.89;100.00;151793.88;5074846;28;20539;-64
2023/07/19 03:23:30;;;;;;;17.52;7.60;;;;;;;23.11;100.00;151850.00;5075409;28;20180;-63
2023/07/19 03:25:58;;;;;;;15.70;8.48;;;;;;;23.88;100.00;152044.03;5074300;28;20185;-63
2023/07/19 03:28:25;;;;;;;10.02;8.45;;;;;;;24.49;100.00;152198.56;5074565;28;20197;-63
2023/07/19 03:30:54;;;;;;;19.00;8.10;;;;;;;24.99;100.00;152325.03;5074872;28;20602;-63
2023/07/19 03:33:22;;;;;;;19.63;8.60;;;;;;;25.46;100.00;152442.63;5074549;28;20231;-63
2023/07/19 03:35:49;;;;;;;7.97;7.20;;;;;;;25.58;100.00;152472.03;5074544;28;20189;-64
2023/07/19 03:38:16;;;;;;;10.27;6.72;;;;;;;25.35;100.00;152414.47;5074573;28;20618;-64
2023/07/19 03:40:44;;;;;;;15.98;8.15;;;;;;;25.31;100.00;152404.25;5074573;28;20181;-64
2023/07/19 03:43:11;;;;;;;10.82;7.50;;;;;;;25.18;100.00;152371.03;5074330;28;20197;-62
2023/07/19 03:45:39;;;;;;;11.15;6.80;;;;;;;25.18;100.00;152371.03;5074287;28;20216;-64
2023/07/19 03:48:06;;;;;;;9.88;7.45;;;;;;;25.24;100.00;152387.69;5074010;28;20192;-63
2023/07/19 03:50:33;;;;;;;9.20;7.68;;;;;;;25.47;100.00;152445.13;5074001;28;20193;-63
2023/07/19 03:53:01;;;;;;;11.85;7.63;;;;;;;25.79;100.00;152527.00;5074162;28;20657;-63
2023/07/19 03:55:28;;;;;;;18.35;7.93;;;;;;;25.81;100.00;152532.09;5073935;28;20185;-63
2023/07/19 03:57:56;;;;;;;11.88;7.68;;;;;;;26.02;100.00;152583.22;5073748;28;20208;-64
2023/07/19 04:00:23;;;;;;;19.38;7.72;;;;;;;26.21;100.00;152631.84;5074096;28;20493;-64
2023/07/19 04:02:50;;;;;;;18.58;8.13;;;;;;;26.66;100.00;152745.63;5072599;28;20192;-63
2023/07/19 04:05:17;;;;;;;8.73;8.07;;;;;;;27.07;100.00;152850.59;5073958;28;20628;-64
2023/07/19 04:07:44;;;;;;;18.75;8.40;;;;;;;27.44;100.00;152942.69;5073561;28;20250;-63
2023/07/19 04:10:11;;;;;;;18.95;8.05;;;;;;;27.52;100.00;152964.50;5074710;28;20488;-63
2023/07/19 04:12:38;;;;;;;23.85;7.65;;;;;;;27.76;100.00;153023.31;5073496;28;20200;-63
2023/07/19 04:15:07;;;;;;;15.55;7.57;;;;;;;27.91;100.00;153063.03;5073581;28;20189;-63
2023/07/19 04:17:34;;;;;;;15.48;7.38;;;;;;;27.98;100.00;153080.94;5073702;28;20597;-63
2023/07/19 04:20:01;;;;;;;7.22;6.45;;;;;;;28.08;100.00;153105.25;5073664;28;20623;-63
2023/07/19 04:22:27;;;;;;;13.32;6.90;;;;;;;28.15;100.00;153124.50;5073652;28;20189;-63
2023/07/19 04:24:55;;;;;;;6.78;6.28;;;;;;;27.96;100.00;153075.84;5055543;28;20195;-64
2023/07/19 04:27:22;;;;;;;11.85;7.15;;;;;;;28.10;100.00;153110.41;5073546;28;20268;-62
2023/07/19 04:29:49;;;;;;;9.55;7.15;;;;;;;28.36;100.00;153176.97;5073115;28;20185;-62
2023/07/19 04:32:17;;;;;;;10.52;6.82;;;;;;;28.56;100.00;153226.88;5073407;28;20606;-64
2023/07/19 04:34:44;;;;;;;7.40;6.82;;;;;;;28.68;100.00;153256.38;5072959;28;20189;-63
2023/07/19 04:37:11;;;;;;;13.82;7.18;;;;;;;28.72;100.00;153266.66;5073181;28;20209;-63
2023/07/19 04:39:38;;;;;;;19.20;7.47;;;;;;;28.78;100.00;153283.28;5073037;28;20189;-63
2023/07/19 04:42:05;;;;;;;15.30;7.28;;;;;;;28.77;100.00;153279.47;5072987;28;20177;-64
2023/07/19 04:44:32;;;;;;;7.55;6.85;;;;;;;29.01;100.00;153342.22;5072887;28;20187;-63
2023/07/19 04:46:59;;;;;;;10.90;6.80;;;;;;;29.01;100.00;153340.94;5073159;28;20627;-63
2023/07/19 04:49:27;;;;;;;19.30;7.13;;;;;;;29.02;100.00;153343.50;5072873;28;20204;-64
2023/07/19 04:51:54;;;;;;;14.10;6.93;;;;;;;28.89;100.00;153310.22;5072726;28;20690;-64
2023/07/19 04:54:21;;;;;;;14.18;7.63;;;;;;;29.13;100.00;153371.66;5072679;28;20193;-63
2023/07/19 04:56:47;;;;;;;13.40;6.70;;;;;;;29.30;100.00;153415.25;5072799;28;20231;-64
2023/07/19 04:59:14;;;;;;;8.73;7.57;;;;;;;29.35;100.00;153428.09;5072593;28;20208;-63
2023/07/19 05:01:41;;;;;;;7.28;6.78;;;;;;;29.36;100.00;153430.66;5054913;28;20709;-64
2023/07/19 05:04:08;;;;;;;8.77;7.60;;;;;;;29.33;100.00;153422.94;5072457;28;20181;-64
2023/07/19 05:06:36;;;;;;;10.48;6.60;;;;;;;29.47;100.00;153458.81;5054618;28;20195;-63
2023/07/19 05:09:05;;;;;;;6.03;5.65;;;;;;;29.66;100.00;153504.94;5076140;28;20657;-63
2023/07/19 05:11:31;;;;;;;14.15;7.43;;;;;;;29.76;100.00;153531.84;5075094;28;20188;-63
2023/07/19 05:13:58;;;;;;;10.18;6.38;;;;;;;29.85;100.00;153553.63;5072408;28;20623;-63
2023/07/19 05:16:25;;;;;;;22.27;7.60;;;;;;;30.01;100.00;153594.66;5072804;28;20192;-62
2023/07/19 05:18:52;;;;;;;19.75;7.25;;;;;;;30.16;100.00;153633.13;5073754;28;20227;-63
2023/07/19 05:21:19;;;;;;;9.40;6.95;;;;;;;30.20;100.00;153643.38;5072285;28;20188;-62
2023/07/19 05:23:48;;;;;;;17.52;7.75;;;;;;;30.52;100.00;153722.88;5072151;28;20188;-63
2023/07/19 05:26:15;;;;;;;19.73;7.45;;;;;;;30.57;100.00;153735.69;5072455;28;20650;-65
2023/07/19 05:28:42;;;;;;;15.13;7.28;;;;;;;30.81;100.00;153797.22;5072170;28;20627;-61
2023/07/19 05:31:09;;;;;;;7.43;6.40;;;;;;;30.99;100.00;153843.38;5072344;28;20185;-64
2023/07/19 05:33:36;;;;;;;9.15;7.03;;;;;;;31.15;100.00;153883.19;5072308;28;20534;-64
2023/07/19 05:36:03;;;;;;;8.45;6.93;;;;;;;31.20;100.00;153897.28;5072470;28;20706;-64
2023/07/19 05:38:32;;;;;;;17.60;8.02;;;;;;;31.09;100.00;153869.09;5072285;28;20201;-64
2023/07/19 05:41:01;;;;;;;15.27;7.75;;;;;;;31.31;100.00;153922.97;5073543;28;20709;-63
2023/07/19 05:43:28;;;;;;;7.15;6.18;;;;;;;31.52;100.00;153976.81;5072346;28;20200;-63
2023/07/19 05:46:02;;;;;;;6.20;5.70;;;;;;;31.82;100.00;154053.84;5072304;28;20189;-63
2023/07/19 05:48:28;;;;;;;7.82;7.07;;;;;;;32.08;100.00;154119.28;5072260;28;20199;-62
2023/07/19 05:50:55;;;;;;;12.13;7.70;;;;;;;32.12;100.00;154130.84;5071988;28;20717;-63
2023/07/19 05:53:22;;;;;;;8.45;7.68;;;;;;;32.25;100.00;154161.66;5072251;28;20627;-63
2023/07/19 05:55:51;;;;;;;8.70;7.88;;;;;;;32.38;100.00;154195.03;5071719;28;20181;-64
2023/07/19 05:58:19;;;;;;;18.00;7.70;;;;;;;32.54;100.00;154237.38;5072358;28;20223;-64
2023/07/19 06:00:46;;;;;;;9.57;7.10;;;;;;;32.67;100.00;154269.50;5072697;28;20193;-63
2023/07/19 06:03:16;;;;;;;13.93;7.15;;;;;;;33.01;100.00;154356.81;5072446;28;20184;-62
2023/07/19 06:05:43;;;;;;;8.57;8.02;;;;;;;32.96;100.00;154342.66;5072526;28;20272;-62
2023/07/19 06:08:10;;;;;;;9.32;7.13;;;;;;;32.77;100.00;154293.88;5071830;28;20204;-62
2023/07/19 06:10:37;;;;;;;9.65;6.88;;;;;;;32.92;100.00;154333.69;5077347;28;20184;-63
2023/07/19 06:13:04;;;;;;;8.07;7.15;;;;;;;33.48;100.00;154474.97;5077245;28;20200;-64
2023/07/19 06:15:33;;;;;;;7.38;6.57;;;;;;;33.93;93.88;154589.28;5075112;28;20678;-65
2023/07/19 06:18:00;;;;;;;7.78;7.13;;;;;;;34.19;92.90;154654.84;5073339;28;20217;-64
2023/07/19 06:20:27;;;;;;;7.93;6.80;;;;;;;34.82;88.55;154815.50;5055021;28;20205;-64
2023/07/19 06:22:54;;;;;;;9.00;6.63;;;;;;;34.40;92.56;154708.81;5074632;28;20189;-64
2023/07/19 06:25:21;;;;;;;6.70;6.22;;;;;;;34.77;88.78;154802.63;5072940;28;20650;-64
2023/07/19 06:27:48;;;;;;;6.65;6.13;;;;;;;35.28;83.95;154933.78;5073347;28;20195;-63
2023/07/19 06:30:16;;;;;;;9.00;6.55;;;;;;;35.62;82.83;155019.91;5073231;28;20643;-62
2023/07/19 06:32:45;;;;;;;8.13;7.32;;;;;;;35.20;84.23;154911.91;5074538;28;20181;-63
2023/07/19 06:35:12;;;;;;;11.93;6.75;;;;;;;35.40;85.27;154962.03;5075375;28;20228;-63
2023/07/19 06:37:38;;;;;;;7.85;7.13;;;;;;;35.36;84.85;154953.03;5073826;28;20659;-62
2023/07/19 06:40:06;;;;;;;7.18;6.60;;;;;;;35.09;86.12;154883.63;5073456;28;20181;-64
2023/07/19 06:42:33;;;;;;;11.52;7.10;;;;;;;35.22;84.66;154917.09;5072715;28;20567;-63
2023/07/19 06:45:01;;;;;;;9.25;7.45;;;;;;;35.76;84.72;155053.38;5072702;28;20557;-62
2023/07/19 06:47:28;;;;;;;7.03;6.32;;;;;;;36.83;74.81;155327.41;5072917;28;20192;-64
2023/07/19 06:49:58;;;;;;;7.45;6.88;;;;;;;37.01;73.33;155372.41;5073485;28;20181;-65
2023/07/19 06:52:25;;;;;;;8.88;6.75;;;;;;;37.27;70.63;155439.34;5073858;28;20262;-64
2023/07/19 06:54:52;;;;;;;7.85;6.85;;;;;;;37.01;70.78;155372.41;5072849;28;20586;-63
2023/07/19 06:57:20;;;;;;;7.30;6.90;;;;;;;37.18;71.45;155414.91;5073501;28;20604;-64
2023/07/19 06:59:49;;;;;;;9.40;7.63;;;;;;;36.50;73.39;155243.72;5072390;28;20192;-63
2023/07/19 07:02:18;;;;;;;7.95;7.20;;;;;;;36.45;76.25;155229.59;5073304;28;20566;-64
2023/07/19 07:04:45;;;;;;;7.85;7.03;;;;;;;35.99;76.47;155112.50;5075339;28;20518;-66
2023/07/19 07:07:15;;;;;;;11.57;7.35;;;;;;;35.12;83.15;154891.31;5054280;28;20251;-64
2023/07/19 07:09:41;;;;;;;21.10;7.70;;;;;;;35.32;83.68;154941.47;5072131;28;20211;-63
2023/07/19 07:12:12;;;;;;;8.43;7.68;;;;;;;35.32;82.70;154941.47;5072159;28;20628;-67
2023/07/19 07:14:39;;;;;;;9.45;6.97;;;;;;;35.58;81.29;155009.63;5072066;28;20186;-63
2023/07/19 07:17:07;;;;;;;8.30;7.65;;;;;;;35.52;80.79;154994.16;5071811;28;20623;-64
2023/07/19 07:19:34;;;;;;;10.43;8.13;;;;;;;35.66;82.96;155030.22;5071625;28;20203;-64
2023/07/19 07:22:01;;;;;;;9.00;8.07;;;;;;;35.63;82.80;155022.53;5072063;28;20196;-63
2023/07/19 07:24:29;;;;;;;9.18;8.10;;;;;;;35.48;83.23;154983.88;5071192;28;20692;-63
2023/07/19 07:26:56;;;;;;;8.60;7.90;;;;;;;35.13;85.39;154893.91;5072082;28;20628;-65
2023/07/19 07:29:23;;;;;;;8.65;7.93;;;;;;;35.02;87.53;154865.59;5071548;28;20631;-64
2023/07/19 07:31:52;;;;;;;12.20;8.48;;;;;;;35.01;88.59;154863.06;5071522;28;20192;-66
2023/07/19 07:34:19;;;;;;;11.07;7.88;;;;;;;35.04;87.98;154870.75;5071155;28;20682;-64
2023/07/19 07:36:46;;;;;;;8.73;7.88;;;;;;;34.84;90.33;154821.91;5073062;28;20280;-64
2023/07/19 07:39:13;;;;;;;8.40;7.68;;;;;;;35.04;88.54;154872.03;5074272;28;20212;-64
2023/07/19 07:41:41;;;;;;;7.47;6.88;;;;;;;35.46;86.19;154978.78;5074659;28;20211;-64
2023/07/19 07:44:08;;;;;;;7.15;6.72;;;;;;;35.56;83.77;155004.44;5074548;28;20185;-65
2023/07/19 07:46:35;;;;;;;8.13;7.53;;;;;;;35.61;83.35;155017.31;5077012;28;20212;-65
2023/07/19 07:49:01;;;;;;;7.68;6.93;;;;;;;35.89;80.94;155086.81;5075412;28;20185;-66
2023/07/19 07:51:30;;;;;;;8.18;7.57;;;;;;;36.03;81.30;155124.06;5075596;28;20697;-67
2023/07/19 07:53:57;;;;;;;8.43;7.55;;;;;;;35.71;81.77;155041.81;5057694;28;20615;-64
2023/07/19 07:56:24;;;;;;;8.50;7.63;;;;;;;35.93;80.96;155097.09;5074157;28;20211;-65
2023/07/19 07:58:53;;;;;;;8.55;7.68;;;;;;;36.07;80.44;155133.09;5074512;28;20244;-63
2023/07/19 08:01:20;;;;;;;7.63;7.00;;;;;;;36.25;74.93;155178.13;5074170;28;20193;-63
2023/07/19 08:03:47;;;;;;;8.63;6.57;;;;;;;36.53;71.96;155251.47;5074299;28;20181;-64
2023/07/19 08:06:14;;;;;;;5.68;5.30;;;;;;;36.76;69.09;155308.06;5073840;28;20681;-64
2023/07/19 08:08:41;;;;;;;9.70;7.50;;;;;;;36.78;69.56;155313.25;5074280;28;20185;-64
2023/07/19 08:11:09;;;;;;;6.72;6.13;;;;;;;37.11;70.07;155398.19;5074669;28;20616;-67
2023/07/19 08:13:36;;;;;;;9.45;7.47;;;;;;;37.41;70.15;155474.09;5057529;28;20180;-64
2023/07/19 08:16:06;;;;;;;6.68;6.32;;;;;;;36.89;66.28;155342.81;5074238;28;20276;-63
2023/07/19 08:18:33;;;;;;;5.78;5.57;;;;;;;36.73;60.31;155300.38;5073724;28;20211;-64
2023/07/19 08:21:00;;;;;;;6.72;5.63;;;;;;;37.47;58.17;155490.81;5073704;28;20208;-64
2023/07/19 08:23:27;;;;;;;7.30;5.68;;;;;;;37.98;54.18;155619.66;5073508;28;20180;-63
2023/07/19 08:25:56;;;;;;;5.07;4.88;;;;;;;37.92;53.73;155605.44;5073697;28;20185;-64
2023/07/19 08:28:24;;;;;;;6.28;5.35;;;;;;;38.00;52.42;155623.47;5074096;28;20181;-63
2023/07/19 08:30:51;;;;;;;6.57;5.70;;;;;;;37.86;52.61;155589.97;5074043;28;20184;-64
2023/07/19 08:33:21;;;;;;;8.13;5.47;;;;;;;37.51;53.41;155501.16;5057453;28;20191;-64
2023/07/19 08:35:49;;;;;;;6.13;5.57;;;;;;;37.59;52.88;155520.50;5077148;28;20185;-64
2023/07/19 08:38:18;;;;;;;5.97;5.20;;;;;;;37.70;53.78;155548.78;5058763;28;20231;-64
2023/07/19 08:40:54;;;;;;;4.88;4.68;;;;;;;37.85;52.28;155586.13;5053266;28;20182;-64
2023/07/19 08:43:26;;;;;;;5.57;5.25;;;;;;;37.77;51.19;155566.78;5053215;28;20551;-63
2023/07/19 08:45:54;;;;;;;5.07;4.88;;;;;;;38.27;49.91;155694.31;5054255;28;20220;-65
2023/07/19 08:48:22;;;;;;;5.78;5.43;;;;;;;37.38;51.00;155467.69;5055202;28;20198;-61
2023/07/19 08:50:56;;;;;;;5.53;5.05;;;;;;;37.44;54.00;155481.81;5051170;28;20636;-62
2023/07/19 08:53:25;;;;;;;5.15;4.85;;;;;;;37.90;50.93;155600.25;5064774;28;20240;-63
2023/07/19 08:55:54;;;;;;;5.40;5.20;;;;;;;38.06;49.55;155640.25;5041388;28;20200;-63
2023/07/19 08:58:21;;;;;;;5.78;5.38;;;;;;;37.84;51.43;155584.84;5043852;28;20257;-64
2023/07/19 09:00:49;;;;;;;7.07;6.63;;;;;;;37.87;58.82;155591.25;5044957;28;20207;-64
2023/07/19 09:03:17;;;;;;;6.70;6.00;;;;;;;37.41;61.47;155475.41;5056897;28;20834;-62
2023/07/19 09:05:47;;;;;;;7.72;7.18;;;;;;;37.17;67.37;155413.66;5061430;28;20193;-63
2023/07/19 09:08:14;;;;;;;7.22;6.50;;;;;;;36.56;74.84;155259.19;5061494;28;20189;-63
2023/07/19 09:10:45;;;;;;;7.30;6.90;;;;;;;36.34;77.04;155202.56;5058588;28;20284;-64
2023/07/19 09:13:12;;;;;;;8.98;7.28;;;;;;;35.83;79.77;155071.34;5063902;28;20247;-65
2023/07/19 09:15:40;;;;;;;7.90;6.75;;;;;;;35.50;81.39;154987.75;5045869;28;20563;-62
2023/07/19 09:18:11;;;;;;;7.97;7.47;;;;;;;35.04;82.84;154870.75;5062320;28;20201;-65
2023/07/19 09:20:39;;;;;;;8.13;7.53;;;;;;;34.08;89.53;154626.50;5061163;28;20182;-61
2023/07/19 09:23:08;;;;;;;8.23;7.47;;;;;;;34.04;92.93;154616.22;5062103;28;20199;-61
2023/07/19 09:25:50;;;;;;;8.63;7.88;;;;;;;34.11;92.67;154635.53;5062324;28;20193;-62
2023/07/19 09:28:21;;;;;;;9.70;8.57;;;;;;;34.06;92.39;154622.69;5046648;28;20196;-62
2023/07/19 09:30:55;;;;;;;8.95;7.88;;;;;;;34.02;90.80;154611.13;5061741;28;20185;-61
2023/07/19 09:33:22;;;;;;;7.95;7.30;;;;;;;33.78;94.81;154552.03;5051556;28;20197;-62
2023/07/19 09:35:54;;;;;;;12.57;8.10;;;;;;;33.64;97.96;154516.03;5052576;28;20214;-64
2023/07/19 09:38:23;;;;;;;8.48;7.88;;;;;;;33.90;95.61;154581.59;5051456;28;20205;-63
2023/07/19 09:40:53;;;;;;;9.20;7.90;;;;;;;34.17;93.20;154649.69;5051675;28;20185;-64
2023/07/19 09:43:22;;;;;;;8.50;7.80;;;;;;;34.26;92.30;154674.09;5051265;28;20190;-63
2023/07/19 09:45:50;;;;;;;8.40;7.72;;;;;;;34.21;92.52;154659.97;5051648;28;20307;-63
2023/07/19 09:48:18;;;;;;;9.25;7.65;;;;;;;33.85;94.90;154570.03;5051391;28;20182;-62
2023/07/19 09:50:47;;;;;;;7.85;7.28;;;;;;;33.85;90.61;154570.03;5053012;28;20186;-63
2023/07/19 09:53:15;;;;;;;7.72;7.15;;;;;;;32.95;92.12;154340.09;5071875;28;20211;-63
2023/07/19 09:55:46;;;;;;;7.68;7.28;;;;;;;32.05;96.07;154112.84;5071199;28;20601;-62
2023/07/19 09:58:16;;;;;;;8.88;8.02;;;;;;;32.13;97.33;154133.41;5071086;28;20205;-61
2023/07/19 10:00:44;;;;;;;9.65;7.63;;;;;;;32.41;97.83;154202.72;5071630;28;20188;-64
2023/07/19 10:03:17;;;;;;;10.77;7.25;;;;;;;32.82;94.46;154306.72;5071616;28;20236;-63
2023/07/19 10:05:46;;;;;;;8.27;7.43;;;;;;;32.57;99.99;154243.78;5071502;28;20276;-63
2023/07/19 10:08:13;;;;;;;7.45;6.90;;;;;;;32.94;98.59;154338.78;5053958;28;20275;-63
2023/07/19 10:10:43;;;;;;;7.85;7.20;;;;;;;32.87;99.88;154319.56;5053964;28;20189;-64
2023/07/19 10:13:13;;;;;;;7.75;7.20;;;;;;;33.02;98.90;154359.34;5072220;28;20674;-64
2023/07/19 10:15:41;;;;;;;7.53;7.22;;;;;;;32.71;100.00;154279.78;5071342;28;20272;-63
2023/07/19 10:18:12;;;;;;;8.27;7.55;;;;;;;32.21;100.00;154152.66;5071277;28;20211;-64
2023/07/19 10:20:42;;;;;;;8.95;6.40;;;;;;;31.91;100.00;154076.91;5071345;28;20188;-62
2023/07/19 10:23:09;;;;;;;8.85;7.72;;;;;;;32.33;100.00;154183.47;5071220;28;20196;-64
2023/07/19 10:25:37;;;;;;;8.60;6.72;;;;;;;32.54;100.00;154237.38;5071351;28;20635;-63
2023/07/19 10:28:08;;;;;;;7.63;7.00;;;;;;;32.29;100.00;154171.94;5071411;28;20238;-63
2023/07/19 10:30:50;;;;;;;10.50;7.07;;;;;;;32.56;100.00;154241.19;5071358;28;20184;-64
2023/07/19 10:33:19;;;;;;;7.53;6.95;;;;;;;32.48;100.00;154221.97;5068179;28;20543;-63
2023/07/19 10:35:47;;;;;;;7.35;6.85;;;;;;;31.97;100.00;154091.03;5071634;28;20192;-64
2023/07/19 10:38:15;;;;;;;7.10;6.57;;;;;;;31.93;100.00;154082.06;5071972;28;20215;-63
2023/07/19 10:40:45;;;;;;;7.05;6.55;;;;;;;31.96;100.00;154089.72;5071083;28;20185;-64
2023/07/19 10:43:13;;;;;;;10.98;6.80;;;;;;;32.24;100.00;154159.09;5071657;28;20234;-64
2023/07/19 10:45:41;;;;;;;7.97;6.70;;;;;;;32.68;100.00;154272.03;5071608;28;20193;-65
2023/07/19 10:48:11;;;;;;;13.55;7.53;;;;;;;32.20;100.00;154150.13;5071378;28;20669;-64
2023/07/19 10:50:39;;;;;;;7.35;6.90;;;;;;;31.88;100.00;154067.91;5071953;28;20188;-64
2023/07/19 10:53:07;;;;;;;7.32;6.90;;;;;;;31.74;100.00;154033.34;5071303;28;20185;-65
2023/07/19 10:55:34;;;;;;;6.80;6.50;;;;;;;31.43;100.00;153955.03;5071495;28;20185;-62
2023/07/19 10:58:01;;;;;;;7.88;7.40;;;;;;;31.09;100.00;153867.81;5071625;28;20276;-64
2023/07/19 11:00:29;;;;;;;7.50;7.10;;;;;;;31.09;100.00;153869.09;5071902;28;20655;-65
2023/07/19 11:02:56;;;;;;;7.22;6.72;;;;;;;31.13;100.00;153879.34;5071781;28;20570;-64
2023/07/19 11:05:23;;;;;;;7.70;7.22;;;;;;;31.25;100.00;153908.84;5071047;28;20524;-62
2023/07/19 11:07:51;;;;;;;7.70;6.95;;;;;;;31.20;100.00;153896.00;5070724;28;20196;-64
2023/07/19 11:10:19;;;;;;;7.43;6.97;;;;;;;30.99;100.00;153843.38;5070557;28;20296;-62
2023/07/19 11:12:47;;;;;;;7.75;6.75;;;;;;;31.05;100.00;153858.84;5074487;28;20199;-64
2023/07/19 11:15:16;;;;;;;7.65;7.15;;;;;;;31.12;100.00;153876.78;5074792;28;20564;-63
2023/07/19 11:17:44;;;;;;;7.72;6.97;;;;;;;30.88;100.00;153813.91;5057465;28;20238;-64
2023/07/19 11:20:12;;;;;;;7.22;6.80;;;;;;;31.14;100.00;153880.66;5075065;28;20235;-63